Time;durP1;ratioP1;P1;durP2;ratioP2;P2;SDS_P1;SDS_P2;PMS_P1;PMS_P2;Temp;Humidity;BMP_temperature;BMP_pressure;BME280_temperature;BME280_humidity;BME280_pressure;Samples;Min_cycle;Max_cycle;Signal;HPM_P1;HPM_P2
2023/02/05 00:02:07;;;;;;;12.87;7.03;;;;;;;;;;5048178;28;20187;-85
2023/02/05 00:04:34;;;;;;;8.90;6.10;;;;;;;;;;5033939;28;20178;-84
2023/02/05 00:07:00;;;;;;;9.73;6.60;;;;;;;;;;5030653;28;20182;-84
2023/02/05 00:09:29;;;;;;;11.13;6.43;;;;;;;;;;5030995;28;20269;-84
2023/02/05 00:11:56;;;;;;;11.40;5.93;;;;;;;;;;5025524;28;20261;-85
2023/02/05 00:14:22;;;;;;;12.47;7.73;;;;;;;;;;5026703;28;20668;-85
2023/02/05 00:16:48;;;;;;;11.67;6.43;;;;;;;;;;5026515;28;20177;-85
2023/02/05 00:19:14;;;;;;;10.83;6.87;;;;;;;;;;5044583;28;20280;-85
2023/02/05 00:21:40;;;;;;;9.70;6.83;;;;;;;;;;5027266;28;20181;-84
2023/02/05 00:24:06;;;;;;;15.40;7.47;;;;;;;;;;5025685;28;20220;-85
2023/02/05 00:26:32;;;;;;;12.30;6.53;;;;;;;;;;5027204;28;20178;-85
2023/02/05 00:28:58;;;;;;;11.07;7.10;;;;;;;;;;5029795;28;20170;-84
2023/02/05 00:31:24;;;;;;;11.30;6.60;;;;;;;;;;5025995;28;20271;-86
2023/02/05 00:33:51;;;;;;;9.67;6.47;;;;;;;;;;5028967;28;20750;-86
2023/02/05 00:36:18;;;;;;;12.07;6.83;;;;;;;;;;5029237;28;20254;-85
2023/02/05 00:38:44;;;;;;;12.43;6.50;;;;;;;;;;5035118;28;20174;-84
2023/02/05 00:41:11;;;;;;;10.87;7.23;;;;;;;;;;5025567;28;20186;-85
2023/02/05 00:43:37;;;;;;;10.37;7.20;;;;;;;;;;5025711;28;20551;-84
2023/02/05 00:46:03;;;;;;;7.83;6.00;;;;;;;;;;5019516;28;20192;-84
2023/02/05 00:48:30;;;;;;;11.50;6.97;;;;;;;;;;5027615;28;20174;-86
2023/02/05 00:50:56;;;;;;;11.77;8.03;;;;;;;;;;5019657;28;20178;-85
2023/02/05 00:53:23;;;;;;;10.97;6.97;;;;;;;;;;5026879;28;20206;-86
2023/02/05 00:55:49;;;;;;;12.30;7.40;;;;;;;;;;5027347;28;20217;-85
2023/02/05 00:58:15;;;;;;;8.27;7.27;;;;;;;;;;5043907;28;20571;-85
2023/02/05 01:00:41;;;;;;;13.43;7.70;;;;;;;;;;5028421;28;20189;-84
2023/02/05 01:03:08;;;;;;;11.60;6.80;;;;;;;;;;5027254;28;20186;-86
2023/02/05 01:05:34;;;;;;;9.27;7.23;;;;;;;;;;5029011;28;20182;-85
2023/02/05 01:08:01;;;;;;;9.20;7.30;;;;;;;;;;5026000;28;20272;-84
2023/02/05 01:10:27;;;;;;;11.33;6.90;;;;;;;;;;5026539;28;20263;-85
2023/02/05 01:12:53;;;;;;;13.30;6.67;;;;;;;;;;5021816;28;20489;-85
2023/02/05 01:15:19;;;;;;;8.57;5.97;;;;;;;;;;5026506;28;20185;-85
2023/02/05 01:17:45;;;;;;;9.37;6.80;;;;;;;;;;5027419;28;20197;-86
2023/02/05 01:20:12;;;;;;;8.93;6.37;;;;;;;;;;5026693;28;20235;-85
2023/02/05 01:22:39;;;;;;;11.40;6.47;;;;;;;;;;5040444;28;20208;-85
2023/02/05 01:25:05;;;;;;;10.10;6.80;;;;;;;;;;5022882;28;20189;-84
2023/02/05 01:27:36;;;;;;;11.80;6.70;;;;;;;;;;5023949;28;20665;-85
2023/02/05 01:30:04;;;;;;;9.50;6.33;;;;;;;;;;5028358;28;20203;-84
2023/02/05 01:32:30;;;;;;;12.30;6.93;;;;;;;;;;5027483;28;20611;-85
2023/02/05 01:34:56;;;;;;;9.03;6.83;;;;;;;;;;5028094;28;20198;-85
2023/02/05 01:37:22;;;;;;;9.50;6.93;;;;;;;;;;5027848;28;20173;-84
2023/02/05 01:39:48;;;;;;;10.03;6.67;;;;;;;;;;5026459;28;20523;-86
2023/02/05 01:42:17;;;;;;;13.00;7.07;;;;;;;;;;5043513;28;20680;-86
2023/02/05 01:44:43;;;;;;;11.37;5.93;;;;;;;;;;5025845;28;20182;-86
2023/02/05 01:47:09;;;;;;;10.17;6.57;;;;;;;;;;5028095;28;20653;-85
2023/02/05 01:49:38;;;;;;;9.90;6.40;;;;;;;;;;5026847;28;20190;-84
2023/02/05 01:52:10;;;;;;;10.57;7.20;;;;;;;;;;5027473;28;20303;-85
2023/02/05 01:54:38;;;;;;;10.70;7.37;;;;;;;;;;5021615;28;20225;-84
2023/02/05 01:57:09;;;;;;;9.53;6.37;;;;;;;;;;5027873;28;20711;-84
2023/02/05 01:59:37;;;;;;;12.93;7.07;;;;;;;;;;5028174;28;20288;-83
2023/02/05 02:02:06;;;;;;;11.67;7.07;;;;;;;;;;5026860;28;20261;-84
2023/02/05 02:04:35;;;;;;;11.33;6.83;;;;;;;;;;5030342;28;20182;-84
2023/02/05 02:07:02;;;;;;;10.27;6.57;;;;;;;;;;5031539;28;20178;-84
2023/02/05 02:09:29;;;;;;;14.63;7.57;;;;;;;;;;5030741;28;20620;-85
2023/02/05 02:11:57;;;;;;;11.50;6.10;;;;;;;;;;5030908;28;20517;-85
2023/02/05 02:14:23;;;;;;;12.97;7.40;;;;;;;;;;5022288;28;20286;-85
2023/02/05 02:16:50;;;;;;;14.87;7.70;;;;;;;;;;5027898;28;20287;-85
2023/02/05 02:19:28;;;;;;;10.67;6.80;;;;;;;;;;5031889;28;20691;-83
2023/02/05 02:22:03;;;;;;;11.90;6.90;;;;;;;;;;5030234;28;20209;-85
2023/02/05 02:24:41;;;;;;;9.40;6.90;;;;;;;;;;5031775;28;20612;-85
2023/02/05 02:27:18;;;;;;;9.73;6.63;;;;;;;;;;5031245;28;20581;-84
2023/02/05 02:29:51;;;;;;;12.87;7.00;;;;;;;;;;5023235;28;20228;-86
2023/02/05 02:32:24;;;;;;;11.67;6.33;;;;;;;;;;5047590;28;20268;-83
2023/02/05 02:35:03;;;;;;;10.40;6.93;;;;;;;;;;5027798;28;20193;-84
2023/02/05 02:37:39;;;;;;;13.13;6.87;;;;;;;;;;5031458;28;20217;-85
2023/02/05 02:40:17;;;;;;;9.70;6.80;;;;;;;;;;5030957;28;20594;-84
2023/02/05 02:43:10;;;;;;;10.03;7.00;;;;;;;;;;5030315;28;20264;-85
2023/02/05 02:45:41;;;;;;;12.33;7.77;;;;;;;;;;5043157;28;20197;-84
2023/02/05 02:48:07;;;;;;;12.03;7.37;;;;;;;;;;5031588;28;20659;-83
2023/02/05 02:50:36;;;;;;;10.07;6.80;;;;;;;;;;5031612;28;20323;-84
2023/02/05 02:53:10;;;;;;;9.73;6.53;;;;;;;;;;5046624;28;20184;-84
2023/02/05 02:55:38;;;;;;;9.57;6.00;;;;;;;;;;5028765;28;20231;-86
2023/02/05 02:58:06;;;;;;;10.93;6.47;;;;;;;;;;5040932;28;20802;-84
2023/02/05 03:00:33;;;;;;;11.07;5.93;;;;;;;;;;5032723;28;20184;-84
2023/02/05 03:03:02;;;;;;;11.93;8.50;;;;;;;;;;5031987;28;20895;-84
2023/02/05 03:05:29;;;;;;;12.90;7.20;;;;;;;;;;5031932;28;20166;-84
2023/02/05 03:08:07;;;;;;;11.57;7.30;;;;;;;;;;5031369;28;20250;-84
2023/02/05 03:10:46;;;;;;;10.37;6.77;;;;;;;;;;5031250;28;20193;-85
2023/02/05 03:13:12;;;;;;;10.17;6.73;;;;;;;;;;5045282;28;20681;-84
2023/02/05 03:15:41;;;;;;;12.67;6.70;;;;;;;;;;5031433;28;20213;-84
2023/02/05 03:18:07;;;;;;;13.93;7.43;;;;;;;;;;5032297;28;20363;-84
2023/02/05 03:20:38;;;;;;;8.73;6.70;;;;;;;;;;5031922;28;20178;-84
2023/02/05 03:23:04;;;;;;;8.37;6.93;;;;;;;;;;5030043;28;20197;-85
2023/02/05 03:25:30;;;;;;;12.23;7.20;;;;;;;;;;5030353;28;20278;-85
2023/02/05 03:27:57;;;;;;;13.23;7.67;;;;;;;;;;5029570;28;20261;-84
2023/02/05 03:30:26;;;;;;;13.00;7.30;;;;;;;;;;5031926;28;20197;-84
2023/02/05 03:33:05;;;;;;;7.97;6.33;;;;;;;;;;5030088;28;20174;-84
2023/02/05 03:35:37;;;;;;;11.50;6.57;;;;;;;;;;5030280;28;20174;-85
2023/02/05 03:38:05;;;;;;;8.60;6.07;;;;;;;;;;5031213;28;20182;-84
2023/02/05 03:40:37;;;;;;;11.03;7.37;;;;;;;;;;5030107;28;20204;-84
2023/02/05 03:43:06;;;;;;;13.80;8.23;;;;;;;;;;5029918;28;20628;-84
2023/02/05 03:45:38;;;;;;;13.83;8.17;;;;;;;;;;5032569;28;20162;-86
2023/02/05 03:48:19;;;;;;;9.20;7.03;;;;;;;;;;5032780;28;20184;-85
2023/02/05 03:50:45;;;;;;;12.33;8.90;;;;;;;;;;5029342;28;20166;-85
2023/02/05 03:53:19;;;;;;;12.23;7.07;;;;;;;;;;5028449;28;20229;-83
2023/02/05 03:55:48;;;;;;;14.67;8.17;;;;;;;;;;5038632;28;20319;-85
2023/02/05 03:58:16;;;;;;;12.53;7.67;;;;;;;;;;5032378;28;20621;-85
2023/02/05 04:00:42;;;;;;;14.47;7.07;;;;;;;;;;5034671;28;20687;-85
2023/02/05 04:03:08;;;;;;;15.90;9.10;;;;;;;;;;5029963;28;20178;-83
2023/02/05 04:05:34;;;;;;;13.93;7.97;;;;;;;;;;5031040;28;20228;-84
2023/02/05 04:08:00;;;;;;;13.20;8.13;;;;;;;;;;5028409;28;20182;-86
2023/02/05 04:10:26;;;;;;;11.93;7.77;;;;;;;;;;5031966;28;20201;-84
2023/02/05 04:12:52;;;;;;;13.07;7.90;;;;;;;;;;5028147;28;20186;-86
2023/02/05 04:15:18;;;;;;;9.70;7.03;;;;;;;;;;5031141;28;20613;-83
2023/02/05 04:17:44;;;;;;;11.93;8.47;;;;;;;;;;5027643;28;20178;-86
2023/02/05 04:20:11;;;;;;;12.63;7.93;;;;;;;;;;5030719;28;20196;-83
2023/02/05 04:22:37;;;;;;;14.13;8.60;;;;;;;;;;5030381;28;20264;-85
2023/02/05 04:25:03;;;;;;;12.93;9.07;;;;;;;;;;5030355;28;20216;-84
2023/02/05 04:27:29;;;;;;;15.17;8.87;;;;;;;;;;5030598;28;20946;-86
2023/02/05 04:29:55;;;;;;;11.40;8.33;;;;;;;;;;5030321;28;20185;-84
2023/02/05 04:32:21;;;;;;;14.20;8.67;;;;;;;;;;5028226;28;20181;-85
2023/02/05 04:34:47;;;;;;;15.40;10.07;;;;;;;;;;5024012;28;20197;-85
2023/02/05 04:37:13;;;;;;;14.57;9.73;;;;;;;;;;5025372;28;20185;-85
2023/02/05 04:39:39;;;;;;;18.03;10.63;;;;;;;;;;5026792;28;20708;-86
2023/02/05 04:42:05;;;;;;;15.47;10.63;;;;;;;;;;5031780;28;20205;-84
2023/02/05 04:44:31;;;;;;;19.53;11.13;;;;;;;;;;5032022;28;20193;-85
2023/02/05 04:46:58;;;;;;;18.40;11.00;;;;;;;;;;5031915;28;20174;-84
2023/02/05 04:49:24;;;;;;;19.67;12.20;;;;;;;;;;5032858;28;20216;-84
2023/02/05 04:51:50;;;;;;;17.37;11.07;;;;;;;;;;5027483;28;20170;-84
2023/02/05 04:54:16;;;;;;;19.33;12.40;;;;;;;;;;5042743;28;20213;-85
2023/02/05 04:56:42;;;;;;;19.80;11.83;;;;;;;;;;5028117;28;20177;-85
2023/02/05 04:59:08;;;;;;;17.20;11.67;;;;;;;;;;5025276;28;20174;-83
2023/02/05 05:01:34;;;;;;;16.73;12.33;;;;;;;;;;5028425;28;20629;-84
2023/02/05 05:04:00;;;;;;;17.03;11.67;;;;;;;;;;5029538;28;20181;-85
2023/02/05 05:06:26;;;;;;;24.67;12.63;;;;;;;;;;5028547;28;20185;-85
2023/02/05 05:08:53;;;;;;;18.60;12.90;;;;;;;;;;5029539;28;20192;-84
2023/02/05 05:11:19;;;;;;;20.60;13.13;;;;;;;;;;5024200;28;20229;-84
2023/02/05 05:13:47;;;;;;;20.43;14.40;;;;;;;;;;5029135;28;20201;-85
2023/02/05 05:16:13;;;;;;;18.67;11.67;;;;;;;;;;5043333;28;20188;-85
2023/02/05 05:18:39;;;;;;;22.43;13.87;;;;;;;;;;5030032;28;20196;-84
2023/02/05 05:21:06;;;;;;;21.97;14.77;;;;;;;;;;5029492;28;21848;-84
2023/02/05 05:23:32;;;;;;;25.77;14.70;;;;;;;;;;5023297;28;20209;-85
2023/02/05 05:25:58;;;;;;;23.97;14.23;;;;;;;;;;5042631;28;20235;-84
2023/02/05 05:28:24;;;;;;;25.07;14.77;;;;;;;;;;5029121;28;20200;-84
2023/02/05 05:30:50;;;;;;;21.57;15.03;;;;;;;;;;5026708;28;20241;-84
2023/02/05 05:33:16;;;;;;;25.77;16.10;;;;;;;;;;5044236;28;20225;-85
2023/02/05 05:35:42;;;;;;;22.80;15.47;;;;;;;;;;5029024;28;20181;-84
2023/02/05 05:38:08;;;;;;;24.30;16.10;;;;;;;;;;5027146;28;20691;-85
2023/02/05 05:46:05;;;;;;;28.07;17.00;;;;;;;;;;5029962;28;20251;-83
2023/02/05 05:48:31;;;;;;;25.13;15.10;;;;;;;;;;5037425;28;20264;-84
2023/02/05 05:50:57;;;;;;;28.80;16.47;;;;;;;;;;5035354;28;20181;-85
2023/02/05 05:53:23;;;;;;;27.17;16.13;;;;;;;;;;5031751;28;20748;-84
2023/02/05 05:55:50;;;;;;;27.47;15.27;;;;;;;;;;5033753;28;20320;-84
2023/02/05 05:58:16;;;;;;;25.90;16.87;;;;;;;;;;5034100;28;20181;-87
2023/02/05 06:00:45;;;;;;;27.80;17.23;;;;;;;;;;5034684;28;20178;-84
2023/02/05 06:03:11;;;;;;;28.30;16.47;;;;;;;;;;5035817;28;20679;-84
2023/02/05 06:05:37;;;;;;;27.47;16.80;;;;;;;;;;5034012;28;20236;-86
2023/02/05 06:08:04;;;;;;;25.83;16.67;;;;;;;;;;5033640;28;20650;-84
2023/02/05 06:10:31;;;;;;;27.37;17.87;;;;;;;;;;5033814;28;20181;-86
2023/02/05 06:12:57;;;;;;;30.90;17.77;;;;;;;;;;5034360;28;20182;-85
2023/02/05 06:15:25;;;;;;;28.63;18.50;;;;;;;;;;5036368;28;20216;-84
2023/02/05 06:17:51;;;;;;;26.17;17.67;;;;;;;;;;5036297;28;20625;-85
2023/02/05 06:20:17;;;;;;;29.00;19.47;;;;;;;;;;5034110;28;20581;-84
2023/02/05 06:22:44;;;;;;;27.90;18.10;;;;;;;;;;5031243;28;20183;-84
2023/02/05 06:25:10;;;;;;;31.47;20.70;;;;;;;;;;5034460;28;20181;-84
2023/02/05 06:27:36;;;;;;;31.40;19.90;;;;;;;;;;5037060;28;20182;-85
2023/02/05 06:30:03;;;;;;;28.30;18.50;;;;;;;;;;5035013;28;20185;-84
2023/02/05 06:32:29;;;;;;;32.93;20.30;;;;;;;;;;5033389;28;20188;-85
2023/02/05 06:34:55;;;;;;;30.63;20.13;;;;;;;;;;5028607;28;20201;-84
2023/02/05 06:37:24;;;;;;;32.60;20.20;;;;;;;;;;5036464;28;20560;-84
2023/02/05 06:39:50;;;;;;;31.17;18.80;;;;;;;;;;5035578;28;20180;-84
2023/02/05 06:42:16;;;;;;;30.97;19.00;;;;;;;;;;5036289;28;20169;-84
2023/02/05 06:44:42;;;;;;;29.27;19.60;;;;;;;;;;5035210;28;20541;-84
2023/02/05 06:47:08;;;;;;;30.17;21.17;;;;;;;;;;5035882;28;20644;-85
2023/02/05 06:49:34;;;;;;;30.97;20.20;;;;;;;;;;5031823;28;20216;-84
2023/02/05 06:52:00;;;;;;;29.60;19.63;;;;;;;;;;5033513;28;20224;-84
2023/02/05 06:54:26;;;;;;;30.17;20.17;;;;;;;;;;5032607;28;20229;-85
2023/02/05 06:56:52;;;;;;;29.07;20.00;;;;;;;;;;5046881;28;20634;-83
2023/02/05 06:59:18;;;;;;;30.90;19.53;;;;;;;;;;5031544;28;20174;-85
2023/02/05 07:01:44;;;;;;;30.00;19.73;;;;;;;;;;5033304;28;20193;-86
2023/02/05 07:04:10;;;;;;;26.37;18.43;;;;;;;;;;5031810;28;20178;-84
2023/02/05 07:06:36;;;;;;;30.47;20.73;;;;;;;;;;5031925;28;20421;-84
2023/02/05 07:09:03;;;;;;;30.03;19.63;;;;;;;;;;5029720;28;20182;-84
2023/02/05 07:11:29;;;;;;;26.43;19.43;;;;;;;;;;5038439;28;20204;-84
2023/02/05 07:13:55;;;;;;;27.47;18.23;;;;;;;;;;5029298;28;20303;-83
2023/02/05 07:16:21;;;;;;;30.03;19.70;;;;;;;;;;5042235;28;20220;-84
2023/02/05 07:18:47;;;;;;;27.47;17.87;;;;;;;;;;5027261;28;20166;-84
2023/02/05 07:21:16;;;;;;;29.27;19.73;;;;;;;;;;5025555;28;20174;-86
2023/02/05 07:23:42;;;;;;;25.73;16.50;;;;;;;;;;5046995;28;20177;-84
2023/02/05 07:26:09;;;;;;;29.33;19.77;;;;;;;;;;5029569;28;20186;-85
2023/02/05 07:28:35;;;;;;;26.23;18.43;;;;;;;;;;5030576;28;20173;-84
2023/02/05 07:31:13;;;;;;;30.47;19.70;;;;;;;;;;5027555;28;20221;-84
2023/02/05 07:33:40;;;;;;;27.23;18.87;;;;;;;;;;5026813;28;20378;-84
2023/02/05 07:36:07;;;;;;;27.30;17.57;;;;;;;;;;5031252;28;20182;-84
2023/02/05 07:38:33;;;;;;;25.10;16.60;;;;;;;;;;5031256;28;20610;-84
2023/02/05 07:41:02;;;;;;;23.57;16.43;;;;;;;;;;5026680;28;20189;-84
2023/02/05 07:43:28;;;;;;;21.80;16.10;;;;;;;;;;5031854;28;20203;-83
2023/02/05 07:45:58;;;;;;;22.63;14.93;;;;;;;;;;5031101;28;20287;-86
2023/02/05 07:48:24;;;;;;;25.10;14.87;;;;;;;;;;5030159;28;20196;-87
2023/02/05 07:50:50;;;;;;;23.10;14.20;;;;;;;;;;5025610;28;20257;-85
2023/02/05 07:53:16;;;;;;;23.93;15.20;;;;;;;;;;5044193;28;20201;-87
2023/02/05 07:55:42;;;;;;;21.20;15.20;;;;;;;;;;5023996;28;20477;-83
2023/02/05 07:58:08;;;;;;;22.83;14.70;;;;;;;;;;5026758;28;20212;-86
2023/02/05 08:00:35;;;;;;;21.37;14.97;;;;;;;;;;5029228;28;20681;-87
2023/02/05 08:03:01;;;;;;;20.00;14.30;;;;;;;;;;5030662;28;20178;-84
2023/02/05 08:05:27;;;;;;;18.07;12.83;;;;;;;;;;5023731;28;20217;-85
2023/02/05 08:07:53;;;;;;;20.07;14.90;;;;;;;;;;5023639;28;20197;-85
2023/02/05 08:10:19;;;;;;;23.93;15.23;;;;;;;;;;5024427;28;20299;-86
2023/02/05 08:12:45;;;;;;;20.83;14.37;;;;;;;;;;5026422;28;20228;-86
2023/02/05 08:15:12;;;;;;;16.53;13.23;;;;;;;;;;5029469;28;20213;-86
2023/02/05 08:17:38;;;;;;;21.73;12.47;;;;;;;;;;5030118;28;20305;-86
2023/02/05 08:20:07;;;;;;;17.63;13.17;;;;;;;;;;5029898;28;20184;-89
2023/02/05 08:22:34;;;;;;;17.63;12.67;;;;;;;;;;5030471;28;20178;-85
2023/02/05 08:25:00;;;;;;;14.77;11.37;;;;;;;;;;5028011;28;20545;-85
2023/02/05 08:27:26;;;;;;;12.93;10.57;;;;;;;;;;5027622;28;20186;-85
2023/02/05 08:29:52;;;;;;;13.33;9.90;;;;;;;;;;5021541;28;20181;-86
2023/02/05 08:32:21;;;;;;;12.30;9.03;;;;;;;;;;5027096;28;20194;-89
2023/02/05 08:34:47;;;;;;;11.97;8.47;;;;;;;;;;5048023;28;20233;-87
2023/02/05 08:37:13;;;;;;;10.13;7.10;;;;;;;;;;5050142;28;20162;-85
2023/02/05 08:39:39;;;;;;;9.83;6.57;;;;;;;;;;5033579;28;20192;-86
2023/02/05 08:42:05;;;;;;;7.77;4.83;;;;;;;;;;5021173;28;20275;-85
2023/02/05 08:44:31;;;;;;;7.23;3.67;;;;;;;;;;5028234;28;20256;-85
2023/02/05 08:46:57;;;;;;;4.53;2.80;;;;;;;;;;5021557;28;20178;-86
2023/02/05 08:49:24;;;;;;;6.77;2.60;;;;;;;;;;5027585;28;20205;-88
2023/02/05 08:51:50;;;;;;;3.53;2.77;;;;;;;;;;5032779;28;20609;-86
2023/02/05 08:54:19;;;;;;;4.37;2.10;;;;;;;;;;5030752;28;20341;-85
2023/02/05 08:56:49;;;;;;;3.80;1.90;;;;;;;;;;5029465;28;20182;-86
2023/02/05 08:59:15;;;;;;;3.40;2.10;;;;;;;;;;5042798;28;20253;-85
2023/02/05 09:01:42;;;;;;;2.07;1.87;;;;;;;;;;5027411;28;20186;-86
2023/02/05 09:04:11;;;;;;;5.47;1.77;;;;;;;;;;5029300;28;20308;-84
2023/02/05 09:06:37;;;;;;;2.77;1.67;;;;;;;;;;5029014;28;20276;-87
2023/02/05 09:09:03;;;;;;;1.30;1.20;;;;;;;;;;5046646;28;20308;-85
2023/02/05 09:11:30;;;;;;;2.30;1.73;;;;;;;;;;5030592;28;20186;-86
2023/02/05 09:13:56;;;;;;;5.03;2.00;;;;;;;;;;5030387;28;20658;-86
2023/02/05 09:16:22;;;;;;;3.73;2.23;;;;;;;;;;5023945;28;20201;-85
2023/02/05 09:18:48;;;;;;;5.67;2.13;;;;;;;;;;5024382;28;20661;-87
2023/02/05 09:21:15;;;;;;;2.20;1.70;;;;;;;;;;5020843;28;20209;-87
2023/02/05 09:23:41;;;;;;;3.10;1.80;;;;;;;;;;5022838;28;20202;-86
2023/02/05 09:26:08;;;;;;;4.30;2.00;;;;;;;;;;5023518;28;20640;-78
2023/02/05 09:28:34;;;;;;;1.93;1.57;;;;;;;;;;5041236;28;20611;-88
2023/02/05 09:31:04;;;;;;;7.43;2.30;;;;;;;;;;5026912;28;20178;-87
2023/02/05 09:33:30;;;;;;;6.57;2.30;;;;;;;;;;5025010;28;20206;-87
2023/02/05 09:35:56;;;;;;;6.03;1.80;;;;;;;;;;5039332;28;20343;-85
2023/02/05 09:38:22;;;;;;;8.10;1.90;;;;;;;;;;5034810;28;20178;-86
2023/02/05 09:41:09;;;;;;;4.47;1.90;;;;;;;;;;5027965;28;20277;-88
2023/02/05 09:43:41;;;;;;;4.00;1.53;;;;;;;;;;5040122;28;20186;-86
2023/02/05 09:46:26;;;;;;;5.80;2.67;;;;;;;;;;5047908;28;20201;-87
2023/02/05 09:48:52;;;;;;;5.97;2.13;;;;;;;;;;5033016;28;20182;-87
2023/02/05 09:51:20;;;;;;;8.77;2.43;;;;;;;;;;5032411;28;20192;-87
2023/02/05 09:53:55;;;;;;;5.97;2.20;;;;;;;;;;5033501;28;20688;-82
2023/02/05 09:56:22;;;;;;;6.93;2.30;;;;;;;;;;5027298;28;20232;-87
2023/02/05 09:58:51;;;;;;;7.27;2.63;;;;;;;;;;5032330;28;20607;-86
2023/02/05 10:01:22;;;;;;;9.20;2.70;;;;;;;;;;5045267;28;20204;-85
2023/02/05 10:03:56;;;;;;;4.67;2.20;;;;;;;;;;5045549;28;20182;-86
2023/02/05 10:06:31;;;;;;;5.27;2.60;;;;;;;;;;5049377;28;20195;-86
2023/02/05 10:09:03;;;;;;;7.37;2.33;;;;;;;;;;5030565;28;20173;-87
2023/02/05 10:11:29;;;;;;;6.47;2.37;;;;;;;;;;5029763;28;20681;-85
2023/02/05 10:14:21;;;;;;;8.77;3.03;;;;;;;;;;5029160;28;20218;-88
2023/02/05 10:16:47;;;;;;;7.30;2.30;;;;;;;;;;5006817;28;20629;-86
2023/02/05 10:19:20;;;;;;;9.37;2.80;;;;;;;;;;5033137;28;20174;-86
2023/02/05 10:21:49;;;;;;;10.07;2.57;;;;;;;;;;5033745;28;20583;-88
2023/02/05 10:24:24;;;;;;;5.47;2.40;;;;;;;;;;5033954;28;20593;-86
2023/02/05 10:26:51;;;;;;;7.50;2.87;;;;;;;;;;5034337;28;20205;-85
2023/02/05 10:29:40;;;;;;;6.97;2.30;;;;;;;;;;5033845;28;20182;-87
2023/02/05 10:32:16;;;;;;;8.60;2.30;;;;;;;;;;5048100;28;20293;-88
2023/02/05 10:35:08;;;;;;;7.90;2.27;;;;;;;;;;5052649;28;20209;-84
2023/02/05 10:37:54;;;;;;;4.77;2.30;;;;;;;;;;5050914;28;20178;-86
2023/02/05 10:40:25;;;;;;;7.20;2.50;;;;;;;;;;5033058;28;20178;-86
2023/02/05 10:42:54;;;;;;;8.60;3.27;;;;;;;;;;5033463;28;20597;-86
2023/02/05 10:45:22;;;;;;;7.27;2.70;;;;;;;;;;5034984;28;20170;-85
2023/02/05 10:48:04;;;;;;;11.17;3.87;;;;;;;;;;5048087;28;20189;-85
2023/02/05 10:50:41;;;;;;;7.17;3.17;;;;;;;;;;5033584;28;20186;-80
2023/02/05 10:53:07;;;;;;;9.67;3.27;;;;;;;;;;5033818;28;20190;-83
2023/02/05 10:55:34;;;;;;;15.93;3.37;;;;;;;;;;5032990;28;20262;-85
2023/02/05 10:58:01;;;;;;;7.47;2.53;;;;;;;;;;5034242;28;20178;-83
2023/02/05 11:00:28;;;;;;;9.13;3.10;;;;;;;;;;5034091;28;20191;-90
2023/02/05 11:02:55;;;;;;;7.65;2.47;;;;;;;;;;5035761;28;20519;-86
2023/02/05 11:05:29;;;;;;;8.70;2.37;;;;;;;;;;5030225;28;20209;-86
2023/02/05 11:07:57;;;;;;;7.20;2.40;;;;;;;;;;5049626;28;20169;-86
2023/02/05 11:10:23;;;;;;;10.03;2.73;;;;;;;;;;5028830;28;20189;-88
2023/02/05 11:13:01;;;;;;;5.03;2.03;;;;;;;;;;5033061;28;20713;-88
2023/02/05 11:15:29;;;;;;;7.17;2.00;;;;;;;;;;5050290;28;20233;-87
2023/02/05 11:18:05;;;;;;;8.13;2.50;;;;;;;;;;5031665;28;20279;-87
2023/02/05 11:20:38;;;;;;;8.63;3.57;;;;;;;;;;5045689;28;20202;-88
2023/02/05 11:23:24;;;;;;;5.07;2.10;;;;;;;;;;5046399;28;20276;-89
2023/02/05 11:25:55;;;;;;;5.43;2.33;;;;;;;;;;5042925;28;20501;-87
2023/02/05 11:28:23;;;;;;;11.27;2.57;;;;;;;;;;5051201;28;20761;-88
2023/02/05 11:30:49;;;;;;;12.90;2.83;;;;;;;;;;5034787;28;20243;-88
2023/02/05 11:33:21;;;;;;;5.87;2.10;;;;;;;;;;5038640;28;20178;-89
2023/02/05 11:35:53;;;;;;;7.10;2.37;;;;;;;;;;5044174;28;20281;-89
2023/02/05 11:38:28;;;;;;;8.80;2.73;;;;;;;;;;5033222;28;20573;-90
2023/02/05 11:40:55;;;;;;;3.93;2.17;;;;;;;;;;5051435;28;20652;-90
2023/02/05 11:43:26;;;;;;;8.63;2.40;;;;;;;;;;5045308;28;20185;-88
2023/02/05 11:45:53;;;;;;;7.57;2.37;;;;;;;;;;5048490;28;20182;-88
2023/02/05 11:48:22;;;;;;;7.10;2.07;;;;;;;;;;5033807;28;20182;-88
2023/02/05 11:50:48;;;;;;;4.90;2.63;;;;;;;;;;5033037;28;20178;-86
2023/02/05 11:53:16;;;;;;;4.90;2.37;;;;;;;;;;5050254;28;20201;-90
2023/02/05 11:55:42;;;;;;;9.13;3.07;;;;;;;;;;5036103;28;20269;-87
2023/02/05 11:58:19;;;;;;;5.70;2.10;;;;;;;;;;5024474;28;20209;-89
2023/02/05 12:00:56;;;;;;;8.97;2.27;;;;;;;;;;5049313;28;20676;-87
2023/02/05 12:03:25;;;;;;;5.17;2.17;;;;;;;;;;5028554;28;20165;-89
2023/02/05 12:06:01;;;;;;;7.17;2.63;;;;;;;;;;5032357;28;20212;-88
2023/02/05 12:08:43;;;;;;;16.47;3.80;;;;;;;;;;5046998;28;20239;-88
2023/02/05 12:11:17;;;;;;;5.23;2.57;;;;;;;;;;5034855;28;20289;-88
2023/02/05 12:13:43;;;;;;;7.53;3.10;;;;;;;;;;5026511;28;20636;-89
2023/02/05 12:16:12;;;;;;;5.77;2.17;;;;;;;;;;5035958;28;20174;-89
2023/02/05 12:18:41;;;;;;;7.07;2.50;;;;;;;;;;5042337;28;20174;-89
2023/02/05 12:21:13;;;;;;;6.20;2.23;;;;;;;;;;5034483;28;20186;-88
2023/02/05 12:23:39;;;;;;;5.90;2.50;;;;;;;;;;5034517;28;20409;-89
2023/02/05 12:26:15;;;;;;;6.00;2.80;;;;;;;;;;5031927;28;20186;-89
2023/02/05 12:28:50;;;;;;;5.27;2.13;;;;;;;;;;5025484;28;20658;-87
2023/02/05 12:31:23;;;;;;;6.90;2.50;;;;;;;;;;5032064;28;20205;-87
2023/02/05 12:33:49;;;;;;;7.63;2.10;;;;;;;;;;5032419;28;20194;-88
2023/02/05 12:36:24;;;;;;;8.63;2.40;;;;;;;;;;5031029;28;20193;-88
2023/02/05 12:38:53;;;;;;;3.87;2.00;;;;;;;;;;5044531;28;20205;-88
2023/02/05 12:41:26;;;;;;;4.57;2.30;;;;;;;;;;5029084;28;20174;-89
2023/02/05 12:43:57;;;;;;;6.23;1.97;;;;;;;;;;5031598;28;20197;-88
2023/02/05 12:46:36;;;;;;;4.83;1.73;;;;;;;;;;5024388;28;20187;-87
2023/02/05 12:49:12;;;;;;;4.63;2.53;;;;;;;;;;5046593;28;20182;-89
2023/02/05 12:51:44;;;;;;;4.03;2.17;;;;;;;;;;5021945;28;20518;-89
2023/02/05 12:54:29;;;;;;;3.30;1.63;;;;;;;;;;5025853;28;20221;-90
2023/02/05 12:56:55;;;;;;;5.00;1.97;;;;;;;;;;5030088;28;20195;-89
2023/02/05 12:59:24;;;;;;;3.90;1.80;;;;;;;;;;5032429;28;20178;-88
2023/02/05 13:01:52;;;;;;;4.20;1.63;;;;;;;;;;5033898;28;20685;-90
2023/02/05 13:04:22;;;;;;;8.30;2.60;;;;;;;;;;5033244;28;20501;-89
2023/02/05 13:06:52;;;;;;;3.90;2.03;;;;;;;;;;5032114;28;20184;-88
2023/02/05 13:09:26;;;;;;;4.23;1.53;;;;;;;;;;5033370;28;20166;-87
2023/02/05 13:12:06;;;;;;;6.47;1.80;;;;;;;;;;5032257;28;20222;-87
2023/02/05 13:14:39;;;;;;;3.23;1.43;;;;;;;;;;5031288;28;20284;-88
2023/02/05 13:17:10;;;;;;;6.13;1.67;;;;;;;;;;5030186;28;20185;-88
2023/02/05 13:19:39;;;;;;;4.73;1.83;;;;;;;;;;5045271;28;20589;-90
2023/02/05 13:30:43;;;;;;;6.37;2.00;;;;;;;;;;5029069;28;20243;-90
2023/02/05 13:33:09;;;;;;;4.57;1.67;;;;;;;;;;5045399;28;20205;-88
2023/02/05 13:35:47;;;;;;;6.43;1.60;;;;;;;;;;5030168;28;20185;-90
2023/02/05 13:38:21;;;;;;;4.50;2.10;;;;;;;;;;5046380;28;20281;-89
2023/02/05 13:40:57;;;;;;;5.00;1.70;;;;;;;;;;5032878;28;20206;-88
2023/02/05 13:43:23;;;;;;;3.43;1.63;;;;;;;;;;5030998;28;20181;-88
2023/02/05 13:45:55;;;;;;;2.90;1.50;;;;;;;;;;5029033;28;20189;-89
2023/02/05 13:48:24;;;;;;;6.73;2.00;;;;;;;;;;5042332;28;20210;-89
2023/02/05 13:51:05;;;;;;;3.07;1.47;;;;;;;;;;5048159;28;20185;-89
2023/02/05 13:53:50;;;;;;;3.23;1.53;;;;;;;;;;5031558;28;20569;-89
2023/02/05 13:56:16;;;;;;;4.30;1.60;;;;;;;;;;5032293;28;20261;-89
2023/02/05 13:58:42;;;;;;;2.30;1.40;;;;;;;;;;5032301;28;20162;-89
2023/02/05 14:01:16;;;;;;;6.97;1.83;;;;;;;;;;5029921;28;20209;-88
2023/02/05 14:03:52;;;;;;;5.43;2.50;;;;;;;;;;5031303;28;20184;-88
2023/02/05 14:06:31;;;;;;;7.30;1.87;;;;;;;;;;5038283;28;20181;-86
2023/02/05 14:09:02;;;;;;;4.00;1.90;;;;;;;;;;5047447;28;20541;-91
2023/02/05 14:11:29;;;;;;;5.30;1.50;;;;;;;;;;5031490;28;20181;-90
2023/02/05 14:14:34;;;;;;;6.33;2.00;;;;;;;;;;5035612;28;20189;-88
2023/02/05 14:17:01;;;;;;;5.67;1.80;;;;;;;;;;4963993;28;20191;-90
2023/02/05 14:19:55;;;;;;;4.47;1.50;;;;;;;;;;4976789;28;20172;-90
2023/02/05 14:22:41;;;;;;;5.77;1.70;;;;;;;;;;5007662;28;20257;-89
2023/02/05 14:25:28;;;;;;;8.27;1.80;;;;;;;;;;5037304;28;20185;-89
2023/02/05 14:27:54;;;;;;;6.67;1.77;;;;;;;;;;5018990;28;20221;-89
2023/02/05 14:30:32;;;;;;;4.67;1.67;;;;;;;;;;5035492;28;20193;-88
2023/02/05 14:33:21;;;;;;;5.30;1.80;;;;;;;;;;5011733;28;20257;-89
2023/02/05 14:35:48;;;;;;;5.93;2.10;;;;;;;;;;5030270;28;20201;-88
2023/02/05 14:38:23;;;;;;;5.20;1.93;;;;;;;;;;5029215;28;20201;-86
2023/02/05 14:41:11;;;;;;;5.83;1.97;;;;;;;;;;5048738;28;20188;-90
2023/02/05 14:43:39;;;;;;;6.13;2.40;;;;;;;;;;5032718;28;20174;-90
2023/02/05 14:46:24;;;;;;;4.70;1.70;;;;;;;;;;5037039;28;20323;-89
2023/02/05 14:48:51;;;;;;;5.37;2.10;;;;;;;;;;5033657;28;20249;-90
2023/02/05 14:51:17;;;;;;;3.23;1.60;;;;;;;;;;5028542;28;20182;-91
2023/02/05 14:53:46;;;;;;;7.63;2.53;;;;;;;;;;5031979;28;20213;-90
2023/02/05 14:56:22;;;;;;;2.73;1.60;;;;;;;;;;5049129;28;20233;-89
2023/02/05 14:58:56;;;;;;;5.87;2.90;;;;;;;;;;5044365;28;20177;-88
2023/02/05 15:01:29;;;;;;;4.53;1.53;;;;;;;;;;5033758;28;20718;-89